• Join FlightAware (Why Join?)
  • Login
  • US Flag 
03:19AM EST


 

Airport Tracker/Info


-or-


 

Live Flight TrackerFlight Track Log ✈ UAL3747 ✈ 02-May-2013 ✈ KBTV - KORD

Flight Track Log - Related Links

Times and Time Zones

All times are in EDT time to prevent confusion due to time zone crossing. See the UAL3747 flight status page for this flight to view local times or setup timezone preferences in your user account.

Time Position Orientation Groundspeed Altitude Reporting Facility
EDT Latitude Longitude Course Direction KTS MPH feet Rate Location/Type
05:41PM 44.4972 -73.3625 255° West 235 270 6,600  Level Boston Center
05:42PM 44.3645 -73.7150 259° West  Level FlightAware Approximate
05:42PM 44.4753 -73.4786 255° West 266 306 9,300  Level Boston Center
05:43PM 44.3441 -73.8581 259° West  Level FlightAware Approximate
05:43PM 44.4536 -73.5858 254° West 298 343 10,100  Level Boston Center
05:44PM 44.3207 -74.0001 255° West  Level FlightAware Approximate
05:44PM 44.4247 -73.7394 255° West 361 415 12,300  Level Boston Center
05:45PM 44.2939 -74.1410 255° West  Level FlightAware Approximate
05:45PM 44.3983 -73.8783 255° West 375 432 14,300  Level Boston Center
05:46PM 44.2670 -74.2818 255° West  Level FlightAware Approximate
05:46PM 44.3669 -74.0286 254° West 386 444 16,400  Level Boston Center
05:47PM 44.3422 -74.1614 255° West 392 451 17,900 1,740 Climbing Boston Center
05:48PM 44.3083 -74.3375 255° West 397 457 20,300 1,980 Climbing Boston Center
05:49PM 44.2764 -74.4872 253° West 397 457 21,900 1,500 Climbing Boston Center
05:50PM 44.2464 -74.6428 255° West 404 465 23,400 1,500 Climbing Boston Center
05:51PM 44.2164 -74.7981 255° West 411 473 25,000 1,200 Climbing Boston Center
05:53PM 44.1811 -74.9847 255° West 416 479 26,400 1,080 Climbing Boston Center
05:54PM 44.1289 -75.1678 248° West 416 479 27,700 960 Climbing Boston Center
05:55PM 44.0772 -75.3244 245° Southwest 433 498 28,600 1,080 Climbing Boston Center
05:56PM 44.0142 -75.5061 244° Southwest 445 512 30,100 1,440 Climbing Boston Center
05:57PM 43.9661 -75.6594 247° West 440 506 31,500 1,260 Climbing Boston Center
05:58PM 43.9203 -75.8069 247° West 435 501 32,700 1,140 Climbing Boston Center
05:59PM 43.8742 -75.9569 247° West 430 495 33,800 900 Climbing Boston Center
06:00PM 43.8567 -76.1117 261° West 424 488 34,700 780 Climbing Boston Center
06:01PM 43.8775 -76.3003 279° West 402 463 35,600 540 Climbing Boston Center
06:02PM 43.8764 -76.4586 269° West 407 468 36,000 180 Climbing Boston Center
06:03PM 43.8611 -76.6506 264° West 417 480 36,000  Level Boston Center
06:04PM 43.8500 -76.7500 261° West 440 506 36,000  Level Toronto Center
06:05PM 43.8333 -76.9333 263° West 440 506 36,000  Level Toronto Center
06:06PM 43.8167 -77.0833 261° West 440 506 36,000  Level Toronto Center
06:07PM 43.8000 -77.2500 262° West 440 506 36,000  Level Toronto Center
06:08PM 43.8000 -77.4333 270° West 440 506 36,000  Level Toronto Center
06:09PM 43.7833 -77.6000 262° West 440 506 36,000  Level Toronto Center
06:10PM 43.7667 -77.7667 262° West 440 506 36,000  Level Toronto Center
06:11PM 43.7500 -77.9167 261° West 450 518 36,000  Level Toronto Center
06:12PM 43.7333 -78.1167 263° West 440 506 36,000  Level Toronto Center
06:13PM 43.7167 -78.2667 261° West 440 506 36,000  Level Toronto Center
06:14PM 43.7000 -78.4333 262° West 440 506 36,000  Level Toronto Center
06:15PM 43.7000 -78.6167 270° West 440 506 36,000  Level Toronto Center
06:16PM 43.6833 -78.7833 262° West 440 506 36,000  Level Toronto Center
06:17PM 43.6667 -78.9333 261° West 440 506 36,000  Level Toronto Center
06:18PM 43.6500 -79.1000 262° West 440 506 36,000  Level Toronto Center
06:19PM 43.6333 -79.2833 263° West 440 506 36,000  Level Toronto Center
06:20PM 43.6000 -79.4500 255° West 440 506 36,000  Level Toronto Center
06:21PM 43.6000 -79.6167 270° West 450 518 36,000  Level Toronto Center
06:22PM 43.5833 -79.8000 263° West 460 529 36,000  Level Toronto Center
06:23PM 43.5500 -79.9500 253° West 450 518 36,000  Level Toronto Center
06:24PM 43.5333 -80.1333 263° West 450 518 36,000  Level Toronto Center
06:25PM 43.5167 -80.3000 262° West 450 518 36,000  Level Toronto Center
06:26PM 43.4833 -80.4667 255° West 440 506 36,000  Level Toronto Center
06:27PM 43.4667 -80.6167 261° West 440 506 36,000  Level Toronto Center
06:28PM 43.4333 -80.8000 256° West 440 506 36,000  Level Toronto Center
06:29PM 43.4000 -80.9667 255° West 440 506 36,000  Level Toronto Center
06:30PM 43.3833 -81.1167 261° West 440 506 36,000  Level Toronto Center
06:31PM 43.3500 -81.2833 255° West 440 506 36,000  Level Toronto Center
06:32PM 43.3333 -81.4667 263° West 440 506 36,000  Level Toronto Center
06:33PM 43.3167 -81.6000 260° West 440 506 36,000  Level Toronto Center
06:34PM 43.2833 -81.7833 256° West 440 506 36,000  Level Toronto Center
06:35PM 43.2500 -81.9500 255° West 440 506 36,000  Level Toronto Center
06:36PM 43.2333 -82.1000 261° West 440 506 36,000  Level Toronto Center
06:37PM 43.2000 -82.2667 255° West 440 506 36,000  Level Toronto Center
06:38PM 43.1833 -82.4500 263° West 440 506 36,000 -540 Level Toronto Center
06:39PM 43.1667 -82.6000 261° West 440 506 35,000 -1,020 Descending Toronto Center
06:40PM 43.1381 -82.7483 255° West 446 513 34,100 -1,020 Descending Cleveland Center
06:41PM 43.1097 -82.9122 257° West 446 513 33,100 -1,020 Descending Cleveland Center
06:42PM 43.0814 -83.0789 257° West 451 519 32,100 -600 Descending Cleveland Center
06:43PM 43.0547 -83.2483 258° West 451 519 32,000 -60 Descending Cleveland Center
06:44PM 43.0236 -83.4147 256° West 451 519 32,000  Level Cleveland Center
06:45PM 42.9942 -83.5892 257° West 451 519 32,000  Level Cleveland Center
06:46PM 42.9667 -83.7583 258° West 456 525 32,000  Level Cleveland Center
06:47PM 42.9472 -83.9303 261° West 461 531 32,000  Level Cleveland Center
06:48PM 42.9317 -84.1053 263° West 467 537 32,000  Level Cleveland Center
06:49PM 42.9136 -84.2831 262° West 467 537 32,000  Level Cleveland Center
06:50PM 42.8931 -84.4989 263° West 468 539 32,000  Level Chicago Center
06:51PM 42.8761 -84.6750 263° West 469 540 32,000  Level Chicago Center
06:52PM 42.8572 -84.8486 262° West 467 537 32,000  Level Chicago Center
06:53PM 42.8386 -85.0236 262° West 467 537 32,000 -60 Level Chicago Center
06:54PM 42.8200 -85.1972 262° West 466 536 31,900 -1,080 Descending Chicago Center
06:55PM 42.8011 -85.3692 262° West 461 531 29,800 -2,280 Descending Chicago Center
06:56PM 42.7747 -85.5672 260° West 447 514 27,200 -2,280 Descending Chicago Center
06:57PM 42.7456 -85.7256 256° West 433 498 25,100 -2,040 Descending Chicago Center
06:58PM 42.7181 -85.8786 256° West 418 481 23,000 -1,920 Descending Chicago Center
06:59PM 42.6914 -86.0244 256° West 399 459 21,200 -1,500 Descending Chicago Center
07:00PM 42.6656 -86.1608 256° West 377 434 20,000 -600 Descending Chicago Center
07:01PM 42.6414 -86.2969 256° West 370 426 20,000 -240 Level Chicago Center
07:02PM 42.6142 -86.4339 255° West 374 430 19,600 -1,020 Descending Chicago Center
07:03PM 42.5892 -86.5722 256° West 377 434 17,900 -1,800 Descending Chicago Center
07:04PM 42.5724 -86.5934 256° West  Level FlightAware Approximate
07:04PM 42.5586 -86.7353 256° West 372 428 16,000  Level Chicago Center
07:05PM 42.5242 -86.8642 250° West 366 421 14,300 -1,680 Descending Chicago Center
07:07PM 42.4889 -86.9917 249° West 363 418 12,600 -1,680 Descending Chicago Center
07:08PM 42.4539 -87.1142 249° West 352 405 10,900 -1,320 Descending Chicago Center
07:09PM 42.4206 -87.2358 250° West 348 400 10,000 -480 Descending Chicago Center
07:10PM 42.3869 -87.3603 250° West 354 407 10,000 -120 Level Chicago Center
07:11PM 42.3536 -87.4814 250° West 324 373 9,800 -960 Descending Chicago Center
07:12PM 42.3117 -87.5619 235° Southwest 277 319 8,100 -1,380 Descending Chicago Center
07:13PM 42.2439 -87.6347 218° Southwest 261 300 7,000 -540 Descending Chicago Center
07:14PM 42.1869 -87.6942 218° Southwest 260 299 7,000  Level Chicago Center
07:15PM 42.1303 -87.7539 218° Southwest 259 298 7,000  Level Chicago Center
07:16PM 42.0914 -87.8336 237° Southwest 272 313 7,000  Level Chicago Center
07:16PM 42.1000 -87.8667 289° West 283 326 7,000  Level Chicago TRACON
07:17PM 42.1000 -87.9833 270° West 283 326 7,000  Level Chicago TRACON
07:18PM 42.1000 -88.0667 270° West 279 321 7,000 -780 Level Chicago TRACON
07:19PM 42.0911 -88.1667 263° West 279 321 5,600 -1,020 Descending Chicago Center
07:20PM 42.0908 -88.2647 270° West 271 312 5,000 -300 Descending Chicago Center
07:21PM 42.0894 -88.3536 269° West 251 289 5,000  Level Chicago Center
07:22PM 42.0408 -88.3836 205° Southwest 224 258 5,000  Level Chicago Center
07:23PM 41.9903 -88.3517 155° Southeast 185 213 5,000  Level Chicago Center
07:24PM 41.9697 -88.2914 115° Southeast 181 208 5,000  Level Chicago Center
07:25PM 41.9669 -88.2253 93° East 182 209 5,000 -480 Level Chicago Center
07:26PM 41.9681 -88.1586 89° East 180 207 4,100 -960 Descending Chicago Center
07:27PM 41.9678 -88.0914 90° East 181 208 3,100 -1,080 Descending Chicago Center
07:28PM 41.9667 -88.0333 91° East 169 194 2,300 -1,140 Descending Chicago TRACON